sensor_id;sensor_type;location;lat;lon;timestamp;P1;durP1;ratioP1;P2;durP2;ratioP2
8986;SDS011;4529;51.360;12.474;2022-09-02T00:00:30;2.80;;;2.43;;
8986;SDS011;4529;51.360;12.474;2022-09-02T00:05:34;3.23;;;2.50;;
8986;SDS011;4529;51.360;12.474;2022-09-02T00:10:39;2.53;;;2.33;;
8986;SDS011;4529;51.360;12.474;2022-09-02T00:15:42;3.63;;;2.50;;
8986;SDS011;4529;51.360;12.474;2022-09-02T00:20:47;3.87;;;2.60;;
8986;SDS011;4529;51.360;12.474;2022-09-02T00:25:51;2.60;;;2.40;;
8986;SDS011;4529;51.360;12.474;2022-09-02T00:30:55;2.37;;;2.20;;
8986;SDS011;4529;51.360;12.474;2022-09-02T00:36:00;2.77;;;2.50;;
8986;SDS011;4529;51.360;12.474;2022-09-02T00:41:03;3.83;;;2.30;;
8986;SDS011;4529;51.360;12.474;2022-09-02T00:46:07;3.53;;;2.50;;
8986;SDS011;4529;51.360;12.474;2022-09-02T00:51:11;2.43;;;2.23;;
8986;SDS011;4529;51.360;12.474;2022-09-02T00:56:20;3.90;;;2.50;;
8986;SDS011;4529;51.360;12.474;2022-09-02T01:01:21;4.70;;;2.50;;
8986;SDS011;4529;51.360;12.474;2022-09-02T01:06:26;2.67;;;2.47;;
8986;SDS011;4529;51.360;12.474;2022-09-02T01:11:34;2.57;;;2.40;;
8986;SDS011;4529;51.360;12.474;2022-09-02T01:16:35;2.60;;;2.40;;
8986;SDS011;4529;51.360;12.474;2022-09-02T01:21:35;2.60;;;2.40;;
8986;SDS011;4529;51.360;12.474;2022-09-02T01:26:39;4.30;;;2.73;;
8986;SDS011;4529;51.360;12.474;2022-09-02T01:31:42;2.70;;;2.50;;
8986;SDS011;4529;51.360;12.474;2022-09-02T01:36:46;2.60;;;2.40;;
8986;SDS011;4529;51.360;12.474;2022-09-02T01:47:48;2.60;;;2.40;;
8986;SDS011;4529;51.360;12.474;2022-09-02T01:52:51;2.40;;;2.30;;
8986;SDS011;4529;51.360;12.474;2022-09-02T01:57:55;2.93;;;2.70;;
8986;SDS011;4529;51.360;12.474;2022-09-02T02:02:58;2.70;;;2.50;;
8986;SDS011;4529;51.360;12.474;2022-09-02T02:08:02;2.70;;;2.50;;
8986;SDS011;4529;51.360;12.474;2022-09-02T02:13:05;2.87;;;2.60;;
8986;SDS011;4529;51.360;12.474;2022-09-02T02:18:09;2.60;;;2.40;;
8986;SDS011;4529;51.360;12.474;2022-09-02T02:23:18;4.00;;;2.83;;
8986;SDS011;4529;51.360;12.474;2022-09-02T02:28:22;3.27;;;2.53;;
8986;SDS011;4529;51.360;12.474;2022-09-02T02:33:26;2.80;;;2.50;;
8986;SDS011;4529;51.360;12.474;2022-09-02T02:38:29;3.17;;;2.90;;
8986;SDS011;4529;51.360;12.474;2022-09-02T02:43:33;2.77;;;2.57;;
8986;SDS011;4529;51.360;12.474;2022-09-02T02:48:36;3.10;;;2.80;;
8986;SDS011;4529;51.360;12.474;2022-09-02T02:53:39;4.10;;;3.00;;
8986;SDS011;4529;51.360;12.474;2022-09-02T02:58:43;2.73;;;2.53;;
8986;SDS011;4529;51.360;12.474;2022-09-02T03:03:46;3.43;;;2.80;;
8986;SDS011;4529;51.360;12.474;2022-09-02T03:08:50;2.80;;;2.60;;
8986;SDS011;4529;51.360;12.474;2022-09-02T03:13:53;3.93;;;2.90;;
8986;SDS011;4529;51.360;12.474;2022-09-02T03:18:56;2.90;;;2.67;;
8986;SDS011;4529;51.360;12.474;2022-09-02T03:24:00;2.50;;;2.40;;
8986;SDS011;4529;51.360;12.474;2022-09-02T03:29:03;3.40;;;3.00;;
8986;SDS011;4529;51.360;12.474;2022-09-02T03:34:07;4.40;;;2.90;;
8986;SDS011;4529;51.360;12.474;2022-09-02T03:39:11;3.43;;;3.13;;
8986;SDS011;4529;51.360;12.474;2022-09-02T03:44:14;3.17;;;2.90;;
8986;SDS011;4529;51.360;12.474;2022-09-02T03:49:17;2.97;;;2.77;;
8986;SDS011;4529;51.360;12.474;2022-09-02T03:54:21;4.60;;;3.10;;
8986;SDS011;4529;51.360;12.474;2022-09-02T03:59:24;2.77;;;2.47;;
8986;SDS011;4529;51.360;12.474;2022-09-02T04:04:28;3.13;;;2.70;;
8986;SDS011;4529;51.360;12.474;2022-09-02T04:09:31;3.10;;;2.80;;
8986;SDS011;4529;51.360;12.474;2022-09-02T04:14:35;4.07;;;3.10;;
8986;SDS011;4529;51.360;12.474;2022-09-02T04:19:38;4.50;;;2.90;;
8986;SDS011;4529;51.360;12.474;2022-09-02T04:24:41;4.43;;;3.40;;
8986;SDS011;4529;51.360;12.474;2022-09-02T04:29:45;3.63;;;3.00;;
8986;SDS011;4529;51.360;12.474;2022-09-02T04:34:48;3.30;;;3.10;;
8986;SDS011;4529;51.360;12.474;2022-09-02T04:39:52;3.83;;;3.30;;
8986;SDS011;4529;51.360;12.474;2022-09-02T04:44:55;5.03;;;3.63;;
8986;SDS011;4529;51.360;12.474;2022-09-02T04:49:59;3.60;;;3.30;;
8986;SDS011;4529;51.360;12.474;2022-09-02T04:55:03;4.80;;;3.97;;
8986;SDS011;4529;51.360;12.474;2022-09-02T05:00:07;4.30;;;3.90;;
8986;SDS011;4529;51.360;12.474;2022-09-02T05:05:10;4.10;;;3.80;;
8986;SDS011;4529;51.360;12.474;2022-09-02T05:10:14;4.93;;;3.87;;
8986;SDS011;4529;51.360;12.474;2022-09-02T05:15:18;4.53;;;4.00;;
8986;SDS011;4529;51.360;12.474;2022-09-02T05:20:23;6.83;;;3.83;;
8986;SDS011;4529;51.360;12.474;2022-09-02T05:25:27;6.40;;;4.30;;
8986;SDS011;4529;51.360;12.474;2022-09-02T05:30:31;6.47;;;4.13;;
8986;SDS011;4529;51.360;12.474;2022-09-02T05:35:39;4.30;;;3.90;;
8986;SDS011;4529;51.360;12.474;2022-09-02T05:40:42;4.80;;;3.90;;
8986;SDS011;4529;51.360;12.474;2022-09-02T05:45:46;4.33;;;3.93;;
8986;SDS011;4529;51.360;12.474;2022-09-02T05:50:50;4.67;;;3.77;;
8986;SDS011;4529;51.360;12.474;2022-09-02T05:55:55;3.63;;;3.33;;
8986;SDS011;4529;51.360;12.474;2022-09-02T06:00:59;3.40;;;3.03;;
8986;SDS011;4529;51.360;12.474;2022-09-02T06:06:03;4.63;;;3.67;;
8986;SDS011;4529;51.360;12.474;2022-09-02T06:11:07;3.53;;;3.23;;
8986;SDS011;4529;51.360;12.474;2022-09-02T06:16:14;5.00;;;3.53;;
8986;SDS011;4529;51.360;12.474;2022-09-02T06:21:16;4.60;;;3.20;;
8986;SDS011;4529;51.360;12.474;2022-09-02T06:26:20;3.50;;;3.20;;
8986;SDS011;4529;51.360;12.474;2022-09-02T06:31:23;3.20;;;2.90;;
8986;SDS011;4529;51.360;12.474;2022-09-02T06:36:27;2.87;;;2.60;;
8986;SDS011;4529;51.360;12.474;2022-09-02T06:41:31;2.87;;;2.60;;
8986;SDS011;4529;51.360;12.474;2022-09-02T06:46:35;2.60;;;2.40;;
8986;SDS011;4529;51.360;12.474;2022-09-02T06:51:38;3.57;;;2.50;;
8986;SDS011;4529;51.360;12.474;2022-09-02T06:56:41;3.23;;;2.60;;
8986;SDS011;4529;51.360;12.474;2022-09-02T07:01:44;2.20;;;2.10;;
8986;SDS011;4529;51.360;12.474;2022-09-02T07:06:49;2.40;;;2.20;;
8986;SDS011;4529;51.360;12.474;2022-09-02T07:11:51;4.47;;;2.00;;
8986;SDS011;4529;51.360;12.474;2022-09-02T07:16:55;1.83;;;1.73;;
8986;SDS011;4529;51.360;12.474;2022-09-02T07:21:58;1.83;;;1.67;;
8986;SDS011;4529;51.360;12.474;2022-09-02T07:27:01;2.80;;;1.90;;
8986;SDS011;4529;51.360;12.474;2022-09-02T07:32:05;3.33;;;1.90;;
8986;SDS011;4529;51.360;12.474;2022-09-02T07:37:08;1.50;;;1.40;;
8986;SDS011;4529;51.360;12.474;2022-09-02T07:42:12;2.70;;;1.60;;
8986;SDS011;4529;51.360;12.474;2022-09-02T07:47:15;3.23;;;1.40;;
8986;SDS011;4529;51.360;12.474;2022-09-02T07:52:19;1.57;;;1.20;;
8986;SDS011;4529;51.360;12.474;2022-09-02T07:57:22;2.03;;;1.20;;
8986;SDS011;4529;51.360;12.474;2022-09-02T08:02:25;1.27;;;1.17;;
8986;SDS011;4529;51.360;12.474;2022-09-02T08:07:29;1.93;;;1.10;;
8986;SDS011;4529;51.360;12.474;2022-09-02T08:12:32;2.63;;;1.10;;
8986;SDS011;4529;51.360;12.474;2022-09-02T08:17:37;3.10;;;1.50;;
8986;SDS011;4529;51.360;12.474;2022-09-02T08:22:48;1.77;;;1.57;;
8986;SDS011;4529;51.360;12.474;2022-09-02T08:27:52;5.47;;;1.30;;
8986;SDS011;4529;51.360;12.474;2022-09-02T08:32:55;1.40;;;1.30;;
8986;SDS011;4529;51.360;12.474;2022-09-02T08:37:59;1.17;;;1.17;;
8986;SDS011;4529;51.360;12.474;2022-09-02T08:43:04;2.47;;;1.17;;
8986;SDS011;4529;51.360;12.474;2022-09-02T08:48:07;3.23;;;1.20;;
8986;SDS011;4529;51.360;12.474;2022-09-02T08:58:35;1.20;;;1.20;;
8986;SDS011;4529;51.360;12.474;2022-09-02T09:08:58;1.70;;;1.30;;
8986;SDS011;4529;51.360;12.474;2022-09-02T09:14:08;1.90;;;1.07;;
8986;SDS011;4529;51.360;12.474;2022-09-02T09:19:12;1.13;;;1.10;;
8986;SDS011;4529;51.360;12.474;2022-09-02T09:24:27;2.97;;;1.37;;
8986;SDS011;4529;51.360;12.474;2022-09-02T09:29:32;1.07;;;1.00;;
8986;SDS011;4529;51.360;12.474;2022-09-02T09:39:53;1.23;;;1.07;;
8986;SDS011;4529;51.360;12.474;2022-09-02T09:44:57;2.70;;;1.40;;
8986;SDS011;4529;51.360;12.474;2022-09-02T09:50:12;1.00;;;1.00;;
8986;SDS011;4529;51.360;12.474;2022-09-02T09:55:19;1.40;;;1.10;;
8986;SDS011;4529;51.360;12.474;2022-09-02T10:00:31;1.50;;;0.87;;
8986;SDS011;4529;51.360;12.474;2022-09-02T10:05:38;3.90;;;1.20;;
8986;SDS011;4529;51.360;12.474;2022-09-02T10:10:53;1.10;;;1.00;;
8986;SDS011;4529;51.360;12.474;2022-09-02T10:16:02;3.77;;;1.20;;
8986;SDS011;4529;51.360;12.474;2022-09-02T10:21:13;1.10;;;1.00;;
8986;SDS011;4529;51.360;12.474;2022-09-02T10:26:24;2.77;;;1.07;;
8986;SDS011;4529;51.360;12.474;2022-09-02T10:31:45;1.00;;;0.90;;
8986;SDS011;4529;51.360;12.474;2022-09-02T10:37:16;0.90;;;0.90;;
8986;SDS011;4529;51.360;12.474;2022-09-02T10:42:31;0.87;;;0.87;;
8986;SDS011;4529;51.360;12.474;2022-09-02T10:47:56;2.30;;;1.10;;
8986;SDS011;4529;51.360;12.474;2022-09-02T10:53:13;0.83;;;0.83;;
8986;SDS011;4529;51.360;12.474;2022-09-02T10:58:59;1.00;;;1.00;;
8986;SDS011;4529;51.360;12.474;2022-09-02T11:04:00;0.93;;;0.80;;
8986;SDS011;4529;51.360;12.474;2022-09-02T11:09:02;2.47;;;0.90;;
8986;SDS011;4529;51.360;12.474;2022-09-02T11:14:14;2.30;;;0.90;;
8986;SDS011;4529;51.360;12.474;2022-09-02T11:19:45;0.70;;;0.70;;
8986;SDS011;4529;51.360;12.474;2022-09-02T11:25:02;0.80;;;0.80;;
8986;SDS011;4529;51.360;12.474;2022-09-02T11:30:23;0.70;;;0.70;;
8986;SDS011;4529;51.360;12.474;2022-09-02T11:35:30;0.80;;;0.80;;
8986;SDS011;4529;51.360;12.474;2022-09-02T11:40:35;1.23;;;0.73;;
8986;SDS011;4529;51.360;12.474;2022-09-02T11:46:18;0.50;;;0.50;;
8986;SDS011;4529;51.360;12.474;2022-09-02T11:57:04;1.13;;;0.70;;
8986;SDS011;4529;51.360;12.474;2022-09-02T12:02:07;0.70;;;0.70;;
8986;SDS011;4529;51.360;12.474;2022-09-02T12:17:41;0.60;;;0.60;;
8986;SDS011;4529;51.360;12.474;2022-09-02T12:22:45;1.80;;;0.70;;
8986;SDS011;4529;51.360;12.474;2022-09-02T12:27:48;4.40;;;0.70;;
8986;SDS011;4529;51.360;12.474;2022-09-02T12:33:06;0.83;;;0.83;;
8986;SDS011;4529;51.360;12.474;2022-09-02T12:43:19;1.00;;;0.83;;
8986;SDS011;4529;51.360;12.474;2022-09-02T12:48:41;0.77;;;0.73;;
8986;SDS011;4529;51.360;12.474;2022-09-02T12:53:47;4.00;;;0.70;;
8986;SDS011;4529;51.360;12.474;2022-09-02T12:58:51;3.40;;;0.80;;
8986;SDS011;4529;51.360;12.474;2022-09-02T13:03:57;2.53;;;0.80;;
8986;SDS011;4529;51.360;12.474;2022-09-02T13:14:51;0.70;;;0.70;;
8986;SDS011;4529;51.360;12.474;2022-09-02T13:25:44;0.80;;;0.80;;
8986;SDS011;4529;51.360;12.474;2022-09-02T13:31:06;0.80;;;0.80;;
8986;SDS011;4529;51.360;12.474;2022-09-02T13:41:45;1.63;;;0.90;;
8986;SDS011;4529;51.360;12.474;2022-09-02T13:46:52;1.77;;;0.80;;
8986;SDS011;4529;51.360;12.474;2022-09-02T13:52:04;0.70;;;0.70;;
8986;SDS011;4529;51.360;12.474;2022-09-02T13:57:07;0.60;;;0.60;;
8986;SDS011;4529;51.360;12.474;2022-09-02T14:07:46;2.77;;;0.80;;
8986;SDS011;4529;51.360;12.474;2022-09-02T14:12:54;0.80;;;0.80;;
8986;SDS011;4529;51.360;12.474;2022-09-02T14:18:16;0.83;;;0.83;;
8986;SDS011;4529;51.360;12.474;2022-09-02T14:23:18;1.10;;;1.00;;
8986;SDS011;4529;51.360;12.474;2022-09-02T14:28:22;0.80;;;0.80;;
8986;SDS011;4529;51.360;12.474;2022-09-02T14:33:26;2.30;;;0.70;;
8986;SDS011;4529;51.360;12.474;2022-09-02T14:43:50;0.97;;;0.73;;
8986;SDS011;4529;51.360;12.474;2022-09-02T14:54:11;2.57;;;0.90;;
8986;SDS011;4529;51.360;12.474;2022-09-02T14:59:14;1.17;;;1.17;;
8986;SDS011;4529;51.360;12.474;2022-09-02T15:04:18;1.00;;;1.00;;
8986;SDS011;4529;51.360;12.474;2022-09-02T15:09:21;0.97;;;0.90;;
8986;SDS011;4529;51.360;12.474;2022-09-02T15:14:25;0.80;;;0.80;;
8986;SDS011;4529;51.360;12.474;2022-09-02T15:19:28;0.90;;;0.90;;
8986;SDS011;4529;51.360;12.474;2022-09-02T15:24:32;0.90;;;0.90;;
8986;SDS011;4529;51.360;12.474;2022-09-02T15:29:35;1.00;;;0.90;;
8986;SDS011;4529;51.360;12.474;2022-09-02T15:34:39;0.83;;;0.83;;
8986;SDS011;4529;51.360;12.474;2022-09-02T15:39:42;1.43;;;1.00;;
8986;SDS011;4529;51.360;12.474;2022-09-02T15:44:45;1.40;;;0.90;;
8986;SDS011;4529;51.360;12.474;2022-09-02T15:49:50;0.87;;;0.70;;
8986;SDS011;4529;51.360;12.474;2022-09-02T15:54:53;1.30;;;1.20;;
8986;SDS011;4529;51.360;12.474;2022-09-02T15:59:56;1.30;;;1.20;;
8986;SDS011;4529;51.360;12.474;2022-09-02T16:04:59;2.23;;;2.03;;
8986;SDS011;4529;51.360;12.474;2022-09-02T16:10:03;1.83;;;1.53;;
8986;SDS011;4529;51.360;12.474;2022-09-02T16:15:07;1.37;;;1.27;;
8986;SDS011;4529;51.360;12.474;2022-09-02T16:20:10;1.20;;;1.10;;
8986;SDS011;4529;51.360;12.474;2022-09-02T16:25:14;1.47;;;1.37;;
8986;SDS011;4529;51.360;12.474;2022-09-02T16:30:18;5.33;;;2.00;;
8986;SDS011;4529;51.360;12.474;2022-09-02T16:35:21;2.43;;;1.70;;
8986;SDS011;4529;51.360;12.474;2022-09-02T16:40:24;7.90;;;1.47;;
8986;SDS011;4529;51.360;12.474;2022-09-02T16:45:28;1.17;;;1.03;;
8986;SDS011;4529;51.360;12.474;2022-09-02T16:50:31;2.20;;;1.10;;
8986;SDS011;4529;51.360;12.474;2022-09-02T16:55:38;1.00;;;1.00;;
8986;SDS011;4529;51.360;12.474;2022-09-02T17:00:44;1.00;;;1.00;;
8986;SDS011;4529;51.360;12.474;2022-09-02T17:05:48;1.10;;;1.00;;
8986;SDS011;4529;51.360;12.474;2022-09-02T17:11:08;4.57;;;1.10;;
8986;SDS011;4529;51.360;12.474;2022-09-02T17:16:10;2.37;;;1.17;;
8986;SDS011;4529;51.360;12.474;2022-09-02T17:26:37;4.07;;;3.67;;
8986;SDS011;4529;51.360;12.474;2022-09-02T17:31:39;2.50;;;2.30;;
8986;SDS011;4529;51.360;12.474;2022-09-02T17:36:43;2.37;;;1.80;;
8986;SDS011;4529;51.360;12.474;2022-09-02T17:41:46;1.70;;;1.60;;
8986;SDS011;4529;51.360;12.474;2022-09-02T17:46:50;1.50;;;1.40;;
8986;SDS011;4529;51.360;12.474;2022-09-02T17:51:53;1.83;;;1.30;;
8986;SDS011;4529;51.360;12.474;2022-09-02T18:07:40;2.20;;;1.40;;
8986;SDS011;4529;51.360;12.474;2022-09-02T18:13:09;1.30;;;1.20;;
8986;SDS011;4529;51.360;12.474;2022-09-02T18:18:13;1.50;;;1.40;;
8986;SDS011;4529;51.360;12.474;2022-09-02T18:23:26;1.63;;;1.47;;
8986;SDS011;4529;51.360;12.474;2022-09-02T18:28:38;1.07;;;1.07;;
8986;SDS011;4529;51.360;12.474;2022-09-02T18:33:59;1.37;;;1.30;;
8986;SDS011;4529;51.360;12.474;2022-09-02T18:44:39;2.67;;;1.47;;
8986;SDS011;4529;51.360;12.474;2022-09-02T18:49:51;1.60;;;1.50;;
8986;SDS011;4529;51.360;12.474;2022-09-02T18:54:57;2.93;;;1.60;;
8986;SDS011;4529;51.360;12.474;2022-09-02T19:00:12;3.30;;;3.00;;
8986;SDS011;4529;51.360;12.474;2022-09-02T19:05:19;2.90;;;2.70;;
8986;SDS011;4529;51.360;12.474;2022-09-02T19:10:22;2.40;;;2.20;;
8986;SDS011;4529;51.360;12.474;2022-09-02T19:15:25;3.37;;;1.67;;
8986;SDS011;4529;51.360;12.474;2022-09-02T19:20:28;1.70;;;1.60;;
8986;SDS011;4529;51.360;12.474;2022-09-02T19:25:31;1.50;;;1.40;;
8986;SDS011;4529;51.360;12.474;2022-09-02T19:30:35;4.93;;;1.43;;
8986;SDS011;4529;51.360;12.474;2022-09-02T19:35:40;1.50;;;1.40;;
8986;SDS011;4529;51.360;12.474;2022-09-02T19:40:48;1.60;;;1.50;;
8986;SDS011;4529;51.360;12.474;2022-09-02T19:45:52;3.93;;;1.50;;
8986;SDS011;4529;51.360;12.474;2022-09-02T19:50:55;1.70;;;1.60;;
8986;SDS011;4529;51.360;12.474;2022-09-02T19:55:59;1.37;;;1.30;;
8986;SDS011;4529;51.360;12.474;2022-09-02T20:01:03;1.57;;;1.47;;
8986;SDS011;4529;51.360;12.474;2022-09-02T20:06:06;2.43;;;1.50;;
8986;SDS011;4529;51.360;12.474;2022-09-02T20:11:10;1.87;;;1.50;;
8986;SDS011;4529;51.360;12.474;2022-09-02T20:16:16;1.20;;;1.20;;
8986;SDS011;4529;51.360;12.474;2022-09-02T20:21:31;1.83;;;1.30;;
8986;SDS011;4529;51.360;12.474;2022-09-02T20:26:38;3.07;;;1.40;;
8986;SDS011;4529;51.360;12.474;2022-09-02T20:31:54;1.53;;;1.43;;
8986;SDS011;4529;51.360;12.474;2022-09-02T20:48:14;1.50;;;1.40;;
8986;SDS011;4529;51.360;12.474;2022-09-02T20:53:43;2.33;;;1.30;;
8986;SDS011;4529;51.360;12.474;2022-09-02T20:59:04;5.73;;;1.40;;
8986;SDS011;4529;51.360;12.474;2022-09-02T21:04:42;1.73;;;1.50;;
8986;SDS011;4529;51.360;12.474;2022-09-02T21:09:55;1.73;;;1.40;;
8986;SDS011;4529;51.360;12.474;2022-09-02T21:15:05;1.77;;;1.67;;
8986;SDS011;4529;51.360;12.474;2022-09-02T21:20:39;3.10;;;1.60;;
8986;SDS011;4529;51.360;12.474;2022-09-02T21:25:51;1.97;;;1.40;;
8986;SDS011;4529;51.360;12.474;2022-09-02T21:36:19;3.30;;;1.67;;
8986;SDS011;4529;51.360;12.474;2022-09-02T21:41:38;4.97;;;3.80;;
8986;SDS011;4529;51.360;12.474;2022-09-02T22:13:58;1.90;;;1.30;;
8986;SDS011;4529;51.360;12.474;2022-09-02T22:19:03;2.00;;;1.60;;
8986;SDS011;4529;51.360;12.474;2022-09-02T22:24:06;1.40;;;1.40;;
8986;SDS011;4529;51.360;12.474;2022-09-02T22:29:15;1.50;;;1.40;;
8986;SDS011;4529;51.360;12.474;2022-09-02T22:34:19;1.90;;;1.43;;
8986;SDS011;4529;51.360;12.474;2022-09-02T22:39:26;4.67;;;1.40;;
8986;SDS011;4529;51.360;12.474;2022-09-02T22:44:30;1.93;;;1.30;;
8986;SDS011;4529;51.360;12.474;2022-09-02T22:49:44;1.23;;;1.20;;
8986;SDS011;4529;51.360;12.474;2022-09-02T22:54:54;1.20;;;1.20;;
8986;SDS011;4529;51.360;12.474;2022-09-02T23:00:06;2.60;;;1.20;;
8986;SDS011;4529;51.360;12.474;2022-09-02T23:05:17;1.50;;;1.40;;
8986;SDS011;4529;51.360;12.474;2022-09-02T23:10:55;1.50;;;1.40;;
8986;SDS011;4529;51.360;12.474;2022-09-02T23:16:43;1.40;;;1.30;;
8986;SDS011;4529;51.360;12.474;2022-09-02T23:26:26;1.30;;;1.30;;
8986;SDS011;4529;51.360;12.474;2022-09-02T23:42:21;1.50;;;1.40;;
8986;SDS011;4529;51.360;12.474;2022-09-02T23:47:43;1.97;;;1.77;;
8986;SDS011;4529;51.360;12.474;2022-09-02T23:52:59;2.03;;;1.57;;
8986;SDS011;4529;51.360;12.474;2022-09-02T23:58:29;1.80;;;1.50;;
